createdAt,value
2023-03-25T00:01:35.361Z,10.50
2023-03-25T00:04:04.394Z,10.50
2023-03-25T00:06:34.431Z,10.40
2023-03-25T00:09:03.493Z,10.50
2023-03-25T00:11:30.468Z,10.50
2023-03-25T00:13:58.447Z,10.50
2023-03-25T00:16:28.679Z,10.50
2023-03-25T00:18:55.683Z,10.40
2023-03-25T00:21:23.447Z,10.50
2023-03-25T00:23:50.172Z,10.50
2023-03-25T00:26:16.972Z,10.50
2023-03-25T00:28:43.783Z,10.50
2023-03-25T00:31:17.899Z,10.50
2023-03-25T00:33:46.727Z,10.50
2023-03-25T00:36:15.033Z,10.50
2023-03-25T00:38:46.489Z,10.50
2023-03-25T00:41:23.033Z,10.50
2023-03-25T00:43:52.558Z,10.50
2023-03-25T00:46:19.342Z,10.60
2023-03-25T00:48:46.143Z,10.50
2023-03-25T00:51:19.396Z,10.60
2023-03-25T00:53:46.445Z,10.50
2023-03-25T00:56:13.378Z,10.50
2023-03-25T00:58:43.232Z,10.50
2023-03-25T01:01:13.332Z,10.50
2023-03-25T01:03:44.154Z,10.50
2023-03-25T01:06:16.310Z,10.50
2023-03-25T01:08:46.157Z,10.50
2023-03-25T01:11:24.949Z,10.50
2023-03-25T01:13:52.414Z,10.50
2023-03-25T01:16:19.170Z,10.50
2023-03-25T01:18:49.073Z,10.50
2023-03-25T01:21:15.987Z,10.50
2023-03-25T01:23:42.967Z,10.50
2023-03-25T01:26:09.768Z,10.50
2023-03-25T01:28:36.590Z,10.50
2023-03-25T01:31:05.437Z,10.50
2023-03-25T01:33:32.680Z,10.50
2023-03-25T01:36:00.387Z,10.40
2023-03-25T01:38:27.264Z,10.40
2023-03-25T01:41:00.275Z,10.40
2023-03-25T01:43:27.180Z,10.40
2023-03-25T01:45:53.909Z,10.40
2023-03-25T01:48:28.931Z,10.40
2023-03-25T01:51:02.260Z,10.40
2023-03-25T01:53:31.638Z,10.40
2023-03-25T01:56:02.318Z,10.30
2023-03-25T01:58:31.760Z,10.30
2023-03-25T02:00:58.832Z,10.30
2023-03-25T02:03:25.968Z,10.20
2023-03-25T02:06:09.138Z,10.20
2023-03-25T02:08:41.681Z,10.10
2023-03-25T02:11:10.215Z,10.10
2023-03-25T02:13:39.530Z,10.00
2023-03-25T02:16:43.628Z,10.10
2023-03-25T02:19:40.919Z,10.00
2023-03-25T02:22:53.994Z,9.90
2023-03-25T02:25:35.263Z,9.90
2023-03-25T02:28:06.900Z,9.90
2023-03-25T02:30:57.672Z,9.90
2023-03-25T02:34:00.172Z,9.90
2023-03-25T02:36:52.404Z,9.90
2023-03-25T02:39:26.516Z,9.80
2023-03-25T02:42:10.379Z,9.80
2023-03-25T02:44:46.076Z,9.80
2023-03-25T02:47:20.269Z,9.80
2023-03-25T02:50:01.102Z,9.80
2023-03-25T02:52:33.090Z,9.80
2023-03-25T02:55:04.992Z,9.80
2023-03-25T02:57:35.378Z,9.70
2023-03-25T03:00:10.617Z,9.70
2023-03-25T03:02:38.548Z,9.80
2023-03-25T03:05:25.900Z,9.80
2023-03-25T03:08:14.828Z,9.70
2023-03-25T03:11:06.870Z,9.70
2023-03-25T03:13:33.549Z,9.70
2023-03-25T03:16:45.583Z,9.70
2023-03-25T03:19:39.833Z,9.70
2023-03-25T03:22:35.348Z,9.80
2023-03-25T03:25:04.638Z,9.80
2023-03-25T03:27:34.139Z,9.80
2023-03-25T03:30:15.443Z,9.80
2023-03-25T03:32:53.582Z,9.80
2023-03-25T03:35:38.397Z,9.80
2023-03-25T03:38:16.936Z,9.80
2023-03-25T03:40:58.453Z,9.80
2023-03-25T03:43:31.161Z,9.80
2023-03-25T03:46:15.553Z,9.80
2023-03-25T03:48:47.013Z,9.70
2023-03-25T03:51:26.041Z,9.70
2023-03-25T03:54:00.663Z,9.70
2023-03-25T03:57:07.607Z,9.70
2023-03-25T03:59:54.314Z,9.70
2023-03-25T04:02:45.432Z,9.70
2023-03-25T04:05:18.043Z,9.60
2023-03-25T04:07:56.963Z,9.60
2023-03-25T04:10:46.727Z,9.60
2023-03-25T04:13:15.810Z,9.60
2023-03-25T04:15:43.647Z,9.60
2023-03-25T04:18:10.477Z,9.60
2023-03-25T04:20:37.751Z,9.70
2023-03-25T04:23:05.019Z,9.70
2023-03-25T04:25:35.184Z,9.70
2023-03-25T04:28:01.957Z,9.70
2023-03-25T04:30:29.648Z,9.70
2023-03-25T04:33:00.621Z,9.70
2023-03-25T04:35:27.928Z,9.70
2023-03-25T04:37:57.435Z,9.80
2023-03-25T04:40:25.834Z,9.80
2023-03-25T04:42:53.347Z,9.80
2023-03-25T04:45:21.727Z,9.80
2023-03-25T04:47:49.893Z,9.80
2023-03-25T04:50:43.344Z,9.80
2023-03-25T04:53:10.161Z,9.80
2023-03-25T04:55:36.854Z,9.80
2023-03-25T04:58:03.889Z,9.80
2023-03-25T05:00:32.767Z,9.70
2023-03-25T05:03:01.986Z,9.70
2023-03-25T05:05:29.944Z,9.70
2023-03-25T05:07:58.885Z,9.70
2023-03-25T05:10:29.570Z,9.70
2023-03-25T05:13:05.049Z,9.70
2023-03-25T05:15:35.613Z,9.70
2023-03-25T05:18:02.565Z,9.70
2023-03-25T05:20:29.427Z,9.60
2023-03-25T05:22:59.282Z,9.60
2023-03-25T05:25:26.092Z,9.60
2023-03-25T05:27:52.804Z,9.60
2023-03-25T05:30:19.711Z,9.60
2023-03-25T05:32:56.156Z,9.60
2023-03-25T05:35:23.452Z,9.50
2023-03-25T05:37:50.314Z,9.50
2023-03-25T05:40:17.104Z,9.50
2023-03-25T05:42:49.189Z,9.50
2023-03-25T05:45:16.632Z,9.50
2023-03-25T05:47:44.466Z,9.50
2023-03-25T05:50:11.554Z,9.50
2023-03-25T05:52:41.415Z,9.50
2023-03-25T05:55:14.358Z,9.50
2023-03-25T05:57:41.106Z,9.50
2023-03-25T06:00:08.870Z,9.50
2023-03-25T06:02:38.906Z,9.50
2023-03-25T06:05:06.500Z,9.50
2023-03-25T06:07:33.288Z,9.50
2023-03-25T06:09:59.987Z,9.50
2023-03-25T06:12:27.534Z,9.50
2023-03-25T06:14:54.503Z,9.60
2023-03-25T06:17:22.513Z,9.50
2023-03-25T06:19:50.425Z,9.50
2023-03-25T06:22:20.252Z,9.60
2023-03-25T06:24:49.786Z,9.50
2023-03-25T06:27:20.843Z,9.50
2023-03-25T06:29:48.603Z,9.50
2023-03-25T06:32:16.195Z,9.60
2023-03-25T06:34:43.468Z,9.60
2023-03-25T06:37:10.887Z,9.60
2023-03-25T06:39:37.963Z,9.70
2023-03-25T06:42:06.066Z,9.70
2023-03-25T06:44:33.790Z,9.70
2023-03-25T06:47:02.658Z,9.80
2023-03-25T06:49:29.459Z,9.80
2023-03-25T06:52:03.802Z,9.80
2023-03-25T06:54:32.927Z,9.90
2023-03-25T06:56:59.685Z,9.90
2023-03-25T06:59:26.468Z,9.90
2023-03-25T07:01:53.333Z,9.90
2023-03-25T07:04:20.141Z,10.00
2023-03-25T07:06:47.016Z,10.00
2023-03-25T07:09:13.841Z,10.00
2023-03-25T07:11:40.726Z,10.00
2023-03-25T07:14:07.755Z,10.00
2023-03-25T07:16:34.583Z,10.00
2023-03-25T07:19:01.395Z,9.90
2023-03-25T07:21:31.246Z,9.90
2023-03-25T07:24:01.040Z,9.90
2023-03-25T07:26:27.826Z,9.90
2023-03-25T07:28:54.588Z,10.00
2023-03-25T07:31:21.576Z,10.00
2023-03-25T07:33:48.470Z,10.00
2023-03-25T07:36:15.283Z,10.00
2023-03-25T07:38:42.117Z,10.00
2023-03-25T07:41:12.782Z,10.00
2023-03-25T07:43:39.960Z,10.00
2023-03-25T07:46:06.997Z,10.00
2023-03-25T07:48:33.969Z,10.10
2023-03-25T07:51:01.229Z,10.10
2023-03-25T07:53:27.981Z,10.10
2023-03-25T07:55:54.826Z,10.20
2023-03-25T07:58:21.500Z,10.30
2023-03-25T08:00:48.238Z,10.40
2023-03-25T08:03:15.761Z,10.50
2023-03-25T08:05:47.313Z,10.50
2023-03-25T08:08:15.058Z,10.60
2023-03-25T08:10:44.225Z,10.60
2023-03-25T08:13:12.030Z,10.60
2023-03-25T08:15:39.585Z,10.60
2023-03-25T08:18:07.816Z,10.70
2023-03-25T08:20:35.848Z,10.70
2023-03-25T08:23:03.047Z,10.80
2023-03-25T08:25:31.175Z,10.90
2023-03-25T08:28:00.774Z,10.90
2023-03-25T08:30:27.580Z,10.90
2023-03-25T08:32:55.039Z,10.90
2023-03-25T08:35:24.185Z,11.00
2023-03-25T08:37:51.412Z,11.10
2023-03-25T08:40:18.285Z,11.20
2023-03-25T08:42:46.292Z,11.10
2023-03-25T08:45:17.724Z,11.20
2023-03-25T08:47:45.746Z,11.20
2023-03-25T08:50:13.520Z,11.20
2023-03-25T08:52:41.303Z,11.20
2023-03-25T08:55:12.219Z,11.10
2023-03-25T08:57:39.336Z,11.10
2023-03-25T09:00:17.043Z,11.10
2023-03-25T09:02:44.321Z,11.10
2023-03-25T09:05:12.715Z,11.20
2023-03-25T09:07:39.998Z,11.30
2023-03-25T09:10:07.980Z,11.40
2023-03-25T09:12:35.015Z,11.50
2023-03-25T09:15:02.370Z,11.40
2023-03-25T09:17:29.303Z,11.40
2023-03-25T09:19:57.698Z,11.30
2023-03-25T09:22:26.073Z,11.30
2023-03-25T09:24:52.994Z,11.30
2023-03-25T09:27:19.684Z,11.30
2023-03-25T09:29:49.059Z,11.20
2023-03-25T09:32:16.146Z,11.30
2023-03-25T09:34:43.917Z,11.30
2023-03-25T09:37:11.396Z,11.30
2023-03-25T09:39:38.092Z,11.30
2023-03-25T09:42:24.836Z,11.40
2023-03-25T09:45:19.508Z,11.50
2023-03-25T09:47:57.804Z,11.50
2023-03-25T09:50:26.503Z,11.40
2023-03-25T09:53:14.488Z,11.30
2023-03-25T09:55:44.349Z,11.30
2023-03-25T09:58:45.823Z,11.30
2023-03-25T10:01:40.453Z,11.50
2023-03-25T10:04:19.654Z,11.50
2023-03-25T10:07:33.831Z,11.60
2023-03-25T10:10:03.576Z,11.70
2023-03-25T10:12:54.698Z,11.70
2023-03-25T10:15:36.491Z,11.70
2023-03-25T10:18:04.165Z,11.70
2023-03-25T10:20:44.159Z,11.60
2023-03-25T10:23:30.544Z,11.60
2023-03-25T10:26:05.103Z,11.60
2023-03-25T10:28:39.330Z,11.60
2023-03-25T10:31:09.500Z,11.70
2023-03-25T10:33:39.589Z,11.70
2023-03-25T10:36:12.660Z,11.80
2023-03-25T10:38:41.976Z,11.90
2023-03-25T10:41:37.418Z,12.10
2023-03-25T10:44:11.544Z,12.20
2023-03-25T10:46:54.958Z,12.30
2023-03-25T10:49:26.646Z,12.40
2023-03-25T10:51:54.877Z,12.40
2023-03-25T10:54:24.101Z,12.40
2023-03-25T10:56:53.089Z,12.40
2023-03-25T10:59:41.267Z,12.50
2023-03-25T11:02:27.213Z,12.50
2023-03-25T11:05:06.565Z,12.50
2023-03-25T11:07:37.734Z,12.50
2023-03-25T11:10:28.533Z,12.50
2023-03-25T11:12:58.746Z,12.50
2023-03-25T11:15:30.731Z,12.50
2023-03-25T11:18:31.371Z,12.50
2023-03-25T11:21:06.774Z,12.40
2023-03-25T11:23:37.820Z,12.40
2023-03-25T11:26:33.806Z,12.40
2023-03-25T11:29:12.747Z,12.40
2023-03-25T11:31:42.226Z,12.30
2023-03-25T11:34:12.144Z,12.20
2023-03-25T11:36:46.252Z,12.20
2023-03-25T11:39:45.813Z,12.40
2023-03-25T11:42:28.936Z,12.60
2023-03-25T11:44:59.689Z,12.90
2023-03-25T11:47:31.415Z,13.10
2023-03-25T11:49:58.617Z,13.20
2023-03-25T11:52:31.357Z,13.20
2023-03-25T11:54:58.193Z,13.10
2023-03-25T11:57:34.484Z,13.00
2023-03-25T12:00:29.505Z,13.10
2023-03-25T12:03:05.379Z,13.30
2023-03-25T12:05:36.468Z,13.50
2023-03-25T12:08:16.175Z,13.60
2023-03-25T12:11:00.333Z,13.70
2023-03-25T12:14:07.741Z,13.80
2023-03-25T12:16:40.746Z,13.90
2023-03-25T12:19:42.794Z,14.10
2023-03-25T12:22:34.191Z,14.20
2023-03-25T12:25:40.575Z,14.20
2023-03-25T12:28:32.533Z,14.20
2023-03-25T12:31:13.678Z,14.10
2023-03-25T12:33:57.204Z,14.10
2023-03-25T12:36:45.228Z,13.90
2023-03-25T12:39:41.575Z,13.90
2023-03-25T12:42:37.346Z,13.80
2023-03-25T12:45:24.517Z,13.80
2023-03-25T12:48:15.451Z,13.80
2023-03-25T12:51:07.326Z,13.70
2023-03-25T12:53:54.002Z,13.50
2023-03-25T12:56:36.156Z,13.50
2023-03-25T12:59:05.605Z,13.60
2023-03-25T13:01:41.010Z,13.60
2023-03-25T13:04:23.473Z,13.50
2023-03-25T13:07:14.091Z,13.30
2023-03-25T13:09:46.930Z,13.10
2023-03-25T13:12:51.110Z,13.00
2023-03-25T13:15:27.580Z,12.80
2023-03-25T13:18:21.299Z,12.70
2023-03-25T13:21:14.096Z,12.80
2023-03-25T13:23:43.816Z,12.90
2023-03-25T13:26:21.521Z,13.10
2023-03-25T13:29:10.487Z,13.30
2023-03-25T13:31:42.242Z,13.50
2023-03-25T13:34:30.104Z,13.60
2023-03-25T13:36:56.744Z,13.80
2023-03-25T13:39:29.807Z,13.90
2023-03-25T13:42:09.511Z,14.00
2023-03-25T13:44:41.773Z,14.10
2023-03-25T13:47:31.621Z,14.20
2023-03-25T13:50:08.583Z,14.30
2023-03-25T13:52:40.471Z,14.30
2023-03-25T13:55:16.938Z,14.40
2023-03-25T13:58:09.308Z,14.40
2023-03-25T14:01:01.861Z,14.60
2023-03-25T14:04:00.032Z,14.60
2023-03-25T14:07:15.268Z,14.60
2023-03-25T14:09:55.770Z,14.60
2023-03-25T14:12:25.526Z,14.50
2023-03-25T14:14:58.357Z,14.40
2023-03-25T14:17:29.066Z,14.40
2023-03-25T14:19:59.650Z,14.40
2023-03-25T14:22:32.559Z,14.30
2023-03-25T14:25:01.025Z,14.30
2023-03-25T14:27:32.559Z,14.30
2023-03-25T14:30:04.693Z,14.20
2023-03-25T14:32:35.758Z,14.20
2023-03-25T14:35:30.762Z,14.20
2023-03-25T14:38:18.725Z,14.20
2023-03-25T14:41:01.390Z,14.20
2023-03-25T14:43:46.311Z,14.40
2023-03-25T14:46:18.611Z,14.70
2023-03-25T14:49:05.806Z,14.70
2023-03-25T14:51:34.970Z,14.70
2023-03-25T14:54:29.798Z,14.70
2023-03-25T14:57:16.014Z,14.60
2023-03-25T14:59:51.820Z,14.50
2023-03-25T15:02:23.304Z,14.50
2023-03-25T15:05:21.198Z,14.40
2023-03-25T15:08:17.795Z,14.40
2023-03-25T15:10:50.186Z,14.30
2023-03-25T15:13:30.538Z,14.20
2023-03-25T15:16:02.252Z,14.10
2023-03-25T15:18:34.965Z,14.00
2023-03-25T15:21:12.023Z,14.00
2023-03-25T15:23:45.531Z,14.00
2023-03-25T15:26:28.584Z,13.90
2023-03-25T15:29:01.496Z,13.80
2023-03-25T15:31:40.875Z,13.80
2023-03-25T15:34:37.458Z,13.80
2023-03-25T15:37:45.565Z,13.80
2023-03-25T15:40:42.108Z,13.90
2023-03-25T15:43:34.632Z,13.90
2023-03-25T15:46:20.506Z,14.00
2023-03-25T15:49:10.296Z,14.00
2023-03-25T15:51:55.552Z,14.00
2023-03-25T15:54:33.689Z,14.00
2023-03-25T15:57:17.201Z,14.00
2023-03-25T15:59:55.689Z,14.00
2023-03-25T16:02:38.199Z,13.90
2023-03-25T16:05:07.272Z,13.90
2023-03-25T16:07:36.036Z,13.80
2023-03-25T16:10:36.308Z,13.70
2023-03-25T16:13:12.171Z,13.70
2023-03-25T16:15:39.878Z,13.70
2023-03-25T16:18:09.827Z,13.60
2023-03-25T16:20:37.519Z,13.60
2023-03-25T16:23:06.471Z,13.50
2023-03-25T16:25:40.029Z,13.50
2023-03-25T16:28:14.478Z,13.50
2023-03-25T16:30:43.471Z,13.40
2023-03-25T16:33:10.841Z,13.40
2023-03-25T16:35:39.551Z,13.40
2023-03-25T16:38:07.333Z,13.30
2023-03-25T16:40:41.794Z,13.30
2023-03-25T16:43:13.785Z,13.30
2023-03-25T16:45:41.757Z,13.20
2023-03-25T16:48:18.557Z,13.20
2023-03-25T16:50:49.589Z,13.20
2023-03-25T16:53:17.992Z,13.10
2023-03-25T16:55:48.632Z,13.20
2023-03-25T16:58:28.627Z,13.10
2023-03-25T17:00:56.915Z,13.10
2023-03-25T17:03:44.905Z,13.10
2023-03-25T17:06:39.947Z,13.00
2023-03-25T17:09:34.034Z,13.00
2023-03-25T17:12:03.183Z,13.00
2023-03-25T17:14:39.341Z,13.00
2023-03-25T17:17:33.859Z,13.00
2023-03-25T17:20:08.962Z,12.90
2023-03-25T17:22:39.644Z,12.90
2023-03-25T17:25:25.891Z,12.90
2023-03-25T17:27:57.038Z,12.90
2023-03-25T17:30:42.644Z,12.90
2023-03-25T17:33:30.208Z,12.90
2023-03-25T17:35:57.711Z,12.80
2023-03-25T17:38:41.258Z,12.80
2023-03-25T17:41:13.436Z,12.80
2023-03-25T17:43:54.492Z,12.80
2023-03-25T17:46:26.832Z,12.80
2023-03-25T17:48:57.132Z,12.70
2023-03-25T17:51:28.938Z,12.70
2023-03-25T17:53:56.520Z,12.70
2023-03-25T17:56:28.384Z,12.70
2023-03-25T17:59:03.046Z,12.70
2023-03-25T18:01:31.257Z,12.70
2023-03-25T18:03:58.186Z,12.70
2023-03-25T18:06:24.978Z,12.60
2023-03-25T18:08:52.017Z,12.60
2023-03-25T18:11:19.451Z,12.50
2023-03-25T18:13:47.785Z,12.40
2023-03-25T18:16:21.133Z,12.40
2023-03-25T18:18:48.855Z,12.30
2023-03-25T18:21:17.250Z,12.20
2023-03-25T18:23:47.787Z,12.10
2023-03-25T18:26:18.284Z,12.10
2023-03-25T18:28:49.051Z,12.10
2023-03-25T18:31:17.753Z,12.00
2023-03-25T18:33:49.992Z,12.00
2023-03-25T18:36:18.305Z,11.90
2023-03-25T18:38:46.090Z,11.90
2023-03-25T18:41:18.585Z,11.80
2023-03-25T18:43:51.025Z,11.80
2023-03-25T18:46:18.041Z,11.70
2023-03-25T18:48:45.536Z,11.70
2023-03-25T18:51:13.833Z,11.70
2023-03-25T18:53:41.376Z,11.70
2023-03-25T18:56:08.926Z,11.60
2023-03-25T18:58:37.675Z,11.60
2023-03-25T19:01:07.802Z,11.60
2023-03-25T19:03:40.901Z,11.50
2023-03-25T19:06:17.427Z,11.50
2023-03-25T19:08:48.362Z,11.40
2023-03-25T19:11:21.040Z,11.40
2023-03-25T19:13:49.450Z,11.40
2023-03-25T19:16:18.856Z,11.30
2023-03-25T19:18:47.571Z,11.30
2023-03-25T19:21:17.217Z,11.20
2023-03-25T19:23:44.171Z,11.20
2023-03-25T19:26:15.074Z,11.10
2023-03-25T19:28:42.246Z,11.00
2023-03-25T19:31:11.731Z,10.90
2023-03-25T19:33:38.569Z,10.80
2023-03-25T19:36:06.184Z,10.70
2023-03-25T19:38:33.255Z,10.70
2023-03-25T19:41:09.526Z,10.60
2023-03-25T19:43:36.603Z,10.50
2023-03-25T19:46:05.549Z,10.40
2023-03-25T19:48:33.236Z,10.40
2023-03-25T19:51:00.610Z,10.30
2023-03-25T19:53:28.198Z,10.20
2023-03-25T19:55:57.493Z,10.20
2023-03-25T19:58:24.692Z,10.10
2023-03-25T20:00:52.884Z,10.10
2023-03-25T20:03:22.705Z,10.00
2023-03-25T20:05:55.900Z,10.00
2023-03-25T20:08:26.078Z,10.00
2023-03-25T20:10:53.390Z,10.00
2023-03-25T20:13:20.830Z,10.00
2023-03-25T20:15:49.824Z,10.00
2023-03-25T20:18:16.962Z,10.00
2023-03-25T20:20:43.879Z,9.90
2023-03-25T20:23:10.773Z,9.90
2023-03-25T20:25:38.442Z,9.90
2023-03-25T20:28:08.436Z,9.90
2023-03-25T20:30:35.755Z,9.90
2023-03-25T20:33:03.277Z,9.90
2023-03-25T20:35:31.085Z,10.00
2023-03-25T20:37:58.235Z,10.00
2023-03-25T20:40:33.861Z,10.00
2023-03-25T20:43:04.968Z,10.00
2023-03-25T20:45:33.020Z,10.00
2023-03-25T20:48:00.186Z,9.90
2023-03-25T20:50:27.303Z,9.90
2023-03-25T20:52:55.387Z,9.90
2023-03-25T20:55:22.425Z,9.90
2023-03-25T20:57:52.321Z,9.90
2023-03-25T21:00:19.555Z,9.80
2023-03-25T21:02:47.751Z,9.80
2023-03-25T21:05:14.860Z,9.70
2023-03-25T21:07:41.710Z,9.70
2023-03-25T21:10:16.558Z,9.70
2023-03-25T21:12:44.686Z,9.60
2023-03-25T21:15:14.689Z,9.60
2023-03-25T21:17:42.164Z,9.60
2023-03-25T21:20:09.836Z,9.60
2023-03-25T21:22:43.131Z,9.60
2023-03-25T21:25:11.037Z,9.60
2023-03-25T21:27:39.228Z,9.60
2023-03-25T21:30:08.043Z,9.50
2023-03-25T21:32:34.956Z,9.50
2023-03-25T21:35:02.020Z,9.50
2023-03-25T21:37:37.521Z,9.50
2023-03-25T21:40:08.166Z,9.50
2023-03-25T21:42:38.259Z,9.40
2023-03-25T21:45:07.446Z,9.40
2023-03-25T21:47:35.873Z,9.40
2023-03-25T21:50:06.136Z,9.40
2023-03-25T21:52:33.736Z,9.40
2023-03-25T21:55:00.598Z,9.40
2023-03-25T21:57:27.595Z,9.40
2023-03-25T21:59:55.277Z,9.40
2023-03-25T22:02:22.586Z,9.40
2023-03-25T22:04:49.602Z,9.30
2023-03-25T22:07:16.466Z,9.30
2023-03-25T22:09:43.281Z,9.30
2023-03-25T22:12:10.278Z,9.30
2023-03-25T22:14:37.264Z,9.20
2023-03-25T22:17:04.062Z,9.20
2023-03-25T22:19:31.346Z,9.20
2023-03-25T22:21:58.062Z,9.20
2023-03-25T22:24:24.781Z,9.20
2023-03-25T22:26:51.541Z,9.20
2023-03-25T22:29:18.792Z,9.20
2023-03-25T22:35:05.037Z,9.10
2023-03-25T22:37:38.219Z,9.10
2023-03-25T22:40:08.544Z,9.00
2023-03-25T22:42:35.365Z,9.00
2023-03-25T22:45:02.408Z,9.00
2023-03-25T22:47:29.307Z,9.00
2023-03-25T22:50:02.721Z,9.00
2023-03-25T22:52:30.014Z,9.00
2023-03-25T22:54:57.172Z,9.00
2023-03-25T22:57:24.108Z,9.10
2023-03-25T22:59:53.348Z,9.00
2023-03-25T23:02:20.263Z,9.10
2023-03-25T23:04:47.283Z,9.10
2023-03-25T23:07:14.507Z,9.10
2023-03-25T23:09:41.915Z,9.20
2023-03-25T23:12:14.620Z,9.20
2023-03-25T23:14:43.873Z,9.20
2023-03-25T23:17:10.625Z,9.20
2023-03-25T23:19:40.086Z,9.30
2023-03-25T23:22:06.967Z,9.30
2023-03-25T23:24:37.983Z,9.30
2023-03-25T23:27:07.317Z,9.40
2023-03-25T23:29:41.913Z,9.40
2023-03-25T23:32:10.302Z,9.40
2023-03-25T23:34:38.574Z,9.50
2023-03-25T23:37:07.638Z,9.50
2023-03-25T23:39:37.636Z,9.60
2023-03-25T23:42:04.522Z,9.60
2023-03-25T23:44:31.462Z,9.60
2023-03-25T23:46:58.661Z,9.70
2023-03-25T23:49:25.728Z,9.70
2023-03-25T23:51:53.175Z,9.70
2023-03-25T23:54:20.010Z,9.70
2023-03-25T23:56:46.953Z,9.80
2023-03-25T23:59:13.930Z,9.80
